Terminal Aerodrome Forecast
Issued by NWS

Current Version | Previous Version | Text Only | Print | Product List | Glossary On
Versions: 1 2 3 4 5 6 7 8 9 10 11 12 13 14 15 16 17 18 19 20 21
012
FTUS44 KSJT 282320
TAFSOA
TAF
KSOA 282320Z 2900/2924 18011KT P6SM FEW060
     FM291100 16008KT P6SM SCT020 BKN025
     FM291400 17011KT P6SM OVC015
     FM291600 18010KT P6SM SCT250=

USA.gov is the U.S. government's official web portal to all federal, state and local government web resources and services.